Gustavus Airport Gustavus US
ICAO: PAGS
IATA:
Category: Medium
Scheduled Services:

Elevation: 35 ft
TransAlt. 18000 ft.

Airport Communications:
AWOS 3:125.9
ANCHORAGE CNTR:133.2
CTAF:122.5
JUNEAU RDO:122.65

PAGS Zoom In..

Runways:

(A) RW 02 length 3146 ft width 60 ft
---- / hdg 21

(B) RW 11 length 6721 ft width 150 ft
---- / hdg 115

(C) RW 20 length 3146 ft width 60 ft
---- / hdg 201

(D) RW 29 length 6721 ft width 150 ft
---- / hdg 295

Location; PAGS
Day. 22 / Time. 01.56 Zulu
* Altimeter: 29.73
* Temperature: 11° c. 51.8°f.
* Wind from: 120° Speed 12 kn.
Dewpoint: 09° c.
Visibility: 10 Statute Miles.
Clouds: Broken 4900 ft.
Clouds: Overcast 6000 ft.
Conditions: Light Rain.

PAGS 220156Z AUTO 12012KT 10SM -RA BKN049 OVC060 11/09 A2973 RMK AO2 RAE26B44 SLP069 P0001 T01060089


Wind From 120°
Speed 12 kn.

 
 
jpsmedia.com for Web Design SOUNDCLOUD worldairports.se 2018   terms of use